createdAt,value
2018-12-15T00:03:59.993Z,15.87
2018-12-15T00:09:05.799Z,16.00
2018-12-15T00:14:10.590Z,14.90
2018-12-15T00:19:13.462Z,14.67
2018-12-15T00:24:16.151Z,13.70
2018-12-15T00:29:18.950Z,13.40
2018-12-15T00:34:21.811Z,12.90
2018-12-15T00:39:24.494Z,13.43
2018-12-15T00:44:27.349Z,13.13
2018-12-15T00:49:30.061Z,13.03
2018-12-15T00:54:32.873Z,13.33
2018-12-15T00:59:35.591Z,13.97
2018-12-15T01:04:38.349Z,13.60
2018-12-15T01:09:41.125Z,13.43
2018-12-15T01:14:43.984Z,13.50
2018-12-15T01:19:46.717Z,13.63
2018-12-15T01:24:49.447Z,12.57
2018-12-15T01:29:52.288Z,12.63
2018-12-15T01:34:54.957Z,13.13
2018-12-15T01:39:57.809Z,12.07
2018-12-15T01:45:00.916Z,12.00
2018-12-15T01:50:03.912Z,12.10
2018-12-15T01:55:06.885Z,11.87
2018-12-15T02:00:09.796Z,12.17
2018-12-15T02:05:14.782Z,11.83
2018-12-15T02:10:17.633Z,11.23
2018-12-15T02:15:20.536Z,11.20
2018-12-15T02:20:23.380Z,10.80
2018-12-15T02:25:26.250Z,10.23
2018-12-15T02:30:29.022Z,10.50
2018-12-15T02:35:31.716Z,9.53
2018-12-15T02:40:34.507Z,9.80
2018-12-15T02:45:38.062Z,9.10
2018-12-15T02:50:40.794Z,8.23
2018-12-15T02:55:43.762Z,8.67
2018-12-15T03:00:46.516Z,8.60
2018-12-15T03:05:49.435Z,8.93
2018-12-15T03:10:52.275Z,8.80
2018-12-15T03:15:55.029Z,8.93
2018-12-15T03:21:01.273Z,8.90
2018-12-15T03:26:04.113Z,8.80
2018-12-15T03:31:06.980Z,8.67
2018-12-15T03:36:09.679Z,8.37
2018-12-15T03:41:12.332Z,7.90
2018-12-15T03:46:15.005Z,8.47
2018-12-15T03:51:17.765Z,8.10
2018-12-15T03:56:20.567Z,7.77
2018-12-15T04:01:23.287Z,8.03
2018-12-15T04:06:27.806Z,8.50
2018-12-15T04:11:30.660Z,8.13
2018-12-15T04:16:33.431Z,8.47
2018-12-15T04:21:36.273Z,8.73
2018-12-15T04:26:39.094Z,8.40
2018-12-15T04:31:44.009Z,8.70
2018-12-15T04:36:46.634Z,8.97
2018-12-15T04:41:49.505Z,8.93
2018-12-15T04:46:52.618Z,8.73
2018-12-15T04:51:55.350Z,8.67
2018-12-15T04:56:58.173Z,9.50
2018-12-15T05:02:01.076Z,8.93
2018-12-15T05:07:04.142Z,8.23
2018-12-15T05:12:06.979Z,9.77
2018-12-15T05:17:09.692Z,9.63
2018-12-15T05:22:13.116Z,10.00
2018-12-15T05:27:16.182Z,9.30
2018-12-15T05:32:19.004Z,9.50
2018-12-15T05:37:21.761Z,9.90
2018-12-15T05:42:24.495Z,10.10
2018-12-15T05:47:27.448Z,9.50
2018-12-15T05:52:30.296Z,9.97
2018-12-15T05:57:32.964Z,9.40
2018-12-15T06:02:35.981Z,9.63
2018-12-15T06:07:38.688Z,9.73
2018-12-15T06:12:42.301Z,10.10
2018-12-15T06:17:45.088Z,9.90
2018-12-15T06:22:47.808Z,10.20
2018-12-15T06:27:50.873Z,10.07
2018-12-15T06:32:53.643Z,10.20
2018-12-15T06:37:56.453Z,11.10
2018-12-15T06:42:59.412Z,10.10
2018-12-15T06:48:02.249Z,9.87
2018-12-15T06:53:04.997Z,10.33
2018-12-15T06:58:07.998Z,10.17
2018-12-15T07:03:10.896Z,9.47
2018-12-15T07:08:13.529Z,9.80
2018-12-15T07:13:16.413Z,9.97
2018-12-15T07:18:19.108Z,10.23
2018-12-15T07:23:21.993Z,9.53
2018-12-15T07:28:24.863Z,10.27
2018-12-15T07:33:27.723Z,9.97
2018-12-15T07:38:30.487Z,10.40
2018-12-15T07:43:33.223Z,10.67
2018-12-15T07:48:35.952Z,10.37
2018-12-15T07:53:38.929Z,10.60
2018-12-15T07:58:41.833Z,10.13
2018-12-15T08:03:44.687Z,10.93
2018-12-15T08:08:47.475Z,10.60
2018-12-15T08:13:54.900Z,10.23
2018-12-15T08:18:58.154Z,10.70
2018-12-15T08:24:01.073Z,10.47
2018-12-15T08:29:04.146Z,10.53
2018-12-15T08:34:07.202Z,11.03
2018-12-15T08:39:10.097Z,10.80
2018-12-15T08:44:13.941Z,10.93
2018-12-15T08:49:16.667Z,10.87
2018-12-15T08:54:19.483Z,10.90
2018-12-15T08:59:22.237Z,11.60
2018-12-15T09:04:25.187Z,11.20
2018-12-15T09:09:28.043Z,11.97
2018-12-15T09:14:30.959Z,12.57
2018-12-15T09:19:33.905Z,11.93
2018-12-15T09:24:36.993Z,13.20
2018-12-15T09:29:39.963Z,12.50
2018-12-15T09:34:42.947Z,12.67
2018-12-15T09:39:45.830Z,13.33
2018-12-15T09:44:48.903Z,12.57
2018-12-15T09:49:51.888Z,12.50
2018-12-15T09:54:54.693Z,12.80
2018-12-15T09:59:57.658Z,12.83
2018-12-15T10:05:00.548Z,12.23
2018-12-15T10:10:03.597Z,12.97
2018-12-15T10:15:06.648Z,13.90
2018-12-15T10:20:16.248Z,14.80
2018-12-15T10:25:19.498Z,15.43
2018-12-15T10:30:27.977Z,15.00
2018-12-15T10:35:30.814Z,15.00
2018-12-15T10:40:33.809Z,15.70
2018-12-15T10:45:37.005Z,15.43
2018-12-15T10:50:40.085Z,15.73
2018-12-15T10:55:43.634Z,16.00
2018-12-15T11:00:52.453Z,17.43
2018-12-15T11:05:55.632Z,16.33
2018-12-15T11:10:58.455Z,16.17
2018-12-15T11:16:01.482Z,17.23
2018-12-15T11:21:04.613Z,16.40
2018-12-15T11:26:07.669Z,16.53
2018-12-15T11:31:10.943Z,17.77
2018-12-15T11:36:14.120Z,16.87
2018-12-15T11:41:17.134Z,15.83
2018-12-15T11:46:20.257Z,16.33
2018-12-15T11:51:23.421Z,16.50
2018-12-15T11:56:26.542Z,16.37
2018-12-15T12:01:30.894Z,16.30
2018-12-15T12:06:33.947Z,17.07
2018-12-15T12:11:37.533Z,19.50
2018-12-15T12:16:40.627Z,16.23
2018-12-15T12:21:43.934Z,15.70
2018-12-15T12:26:47.005Z,15.67
2018-12-15T12:31:50.203Z,16.30
2018-12-15T12:36:53.277Z,16.67
2018-12-15T12:41:56.496Z,16.83
2018-12-15T12:46:59.458Z,16.77
2018-12-15T12:52:02.569Z,17.03
2018-12-15T12:57:06.962Z,17.83
2018-12-15T13:02:10.425Z,17.40
2018-12-15T13:07:13.520Z,18.90
2018-12-15T13:12:16.530Z,17.70
2018-12-15T13:17:19.534Z,17.77
2018-12-15T13:22:22.631Z,18.43
2018-12-15T13:27:25.649Z,17.50
2018-12-15T13:32:28.474Z,19.00
2018-12-15T13:37:31.394Z,18.00
2018-12-15T13:42:34.461Z,19.13
2018-12-15T13:47:37.564Z,19.30
2018-12-15T13:52:40.510Z,19.80
2018-12-15T13:57:43.427Z,18.50
2018-12-15T14:02:46.378Z,18.53
2018-12-15T14:07:49.337Z,19.17
2018-12-15T14:12:52.490Z,18.27
2018-12-15T14:17:55.453Z,18.77
2018-12-15T14:22:58.718Z,20.20
2018-12-15T14:28:01.945Z,19.00
2018-12-15T14:33:05.040Z,22.63
2018-12-15T14:38:08.098Z,22.57
2018-12-15T14:43:11.050Z,20.03
2018-12-15T14:48:13.908Z,19.40
2018-12-15T14:53:16.757Z,19.20
2018-12-15T14:58:35.848Z,20.47
2018-12-15T15:03:43.557Z,18.73
2018-12-15T15:08:49.952Z,19.27
2018-12-15T15:14:01.997Z,19.97
2018-12-15T15:19:17.485Z,19.13
2018-12-15T15:29:34.265Z,20.53
2018-12-15T15:34:48.095Z,20.77
2018-12-15T15:39:58.673Z,19.07
2018-12-15T15:45:02.149Z,20.87
2018-12-15T15:50:08.638Z,21.27
2018-12-15T15:55:14.912Z,19.73
2018-12-15T16:00:19.905Z,20.57
2018-12-15T16:05:23.306Z,20.27
2018-12-15T16:10:27.495Z,19.70
2018-12-15T16:15:30.606Z,21.13
2018-12-15T16:20:43.036Z,20.37
2018-12-15T16:25:42.585Z,20.03
2018-12-15T16:30:45.674Z,21.53
2018-12-15T16:35:48.655Z,21.27
2018-12-15T16:40:51.506Z,20.10
2018-12-15T16:45:54.696Z,21.73
2018-12-15T16:50:59.077Z,21.90
2018-12-15T16:56:01.937Z,21.73
2018-12-15T17:01:04.908Z,21.20
2018-12-15T17:06:08.638Z,21.63
2018-12-15T17:11:11.815Z,22.57
2018-12-15T17:16:14.976Z,20.60
2018-12-15T17:21:18.025Z,30.60
2018-12-15T17:26:22.834Z,21.83
2018-12-15T17:31:26.649Z,22.43
2018-12-15T17:36:29.708Z,21.50
2018-12-15T17:41:32.944Z,22.57
2018-12-15T17:46:36.354Z,23.07
2018-12-15T17:51:39.345Z,22.77
2018-12-15T17:56:42.339Z,23.07
2018-12-15T18:01:45.988Z,23.60
2018-12-15T18:07:01.847Z,21.90
2018-12-15T18:12:04.901Z,22.90
2018-12-15T18:17:07.984Z,23.70
2018-12-15T18:22:11.017Z,24.03
2018-12-15T18:27:13.982Z,23.23
2018-12-15T18:32:17.081Z,27.07
2018-12-15T18:37:20.996Z,23.90
2018-12-15T18:42:24.137Z,22.77
2018-12-15T18:47:26.985Z,25.07
2018-12-15T18:52:29.884Z,25.33
2018-12-15T18:57:32.982Z,25.73
2018-12-15T19:02:35.976Z,24.63
2018-12-15T19:07:38.961Z,25.20
2018-12-15T19:12:42.289Z,25.20
2018-12-15T19:17:45.310Z,25.20
2018-12-15T19:22:48.352Z,23.97
2018-12-15T19:27:51.413Z,26.07
2018-12-15T19:32:55.609Z,24.73
2018-12-15T19:37:58.477Z,25.10
2018-12-15T19:43:01.495Z,27.17
2018-12-15T19:48:04.585Z,25.80
2018-12-15T19:53:07.493Z,26.60
2018-12-15T19:58:10.667Z,25.53
2018-12-15T20:03:14.694Z,26.40
2018-12-15T20:08:17.375Z,26.20
2018-12-15T20:13:20.416Z,31.00
2018-12-15T20:18:23.434Z,28.33
2018-12-15T20:23:26.437Z,35.57
2018-12-15T20:28:29.533Z,28.67
2018-12-15T20:33:32.572Z,29.77
2018-12-15T20:38:35.443Z,28.20
2018-12-15T20:43:38.583Z,27.93
2018-12-15T20:48:42.365Z,28.43
2018-12-15T20:53:45.276Z,28.63
2018-12-15T20:58:48.273Z,28.87
2018-12-15T21:03:51.179Z,29.03
2018-12-15T21:08:54.173Z,27.97
2018-12-15T21:13:57.050Z,29.07
2018-12-15T21:19:00.009Z,28.60
2018-12-15T21:24:03.226Z,28.40
2018-12-15T21:29:06.359Z,30.07
2018-12-15T21:34:09.596Z,28.17
2018-12-15T21:39:13.834Z,28.37
2018-12-15T21:44:17.994Z,29.63
2018-12-15T21:49:21.022Z,28.37
2018-12-15T21:54:24.012Z,29.80
2018-12-15T22:00:01.492Z,28.90
2018-12-15T22:07:44.662Z,28.80
2018-12-15T22:18:22.981Z,28.97
2018-12-15T22:23:25.967Z,30.33
2018-12-15T22:28:28.821Z,31.33
2018-12-15T22:33:31.797Z,30.77
2018-12-15T22:38:34.578Z,31.30
2018-12-15T22:43:37.252Z,30.90
2018-12-15T22:48:40.180Z,31.07
2018-12-15T22:53:43.001Z,30.60
2018-12-15T22:58:45.711Z,30.97
2018-12-15T23:03:49.209Z,32.23
2018-12-15T23:08:51.932Z,32.60
2018-12-15T23:13:54.827Z,32.33
2018-12-15T23:18:57.722Z,32.27
2018-12-15T23:24:00.596Z,32.60
2018-12-15T23:29:03.729Z,33.07
2018-12-15T23:34:06.855Z,33.43
2018-12-15T23:39:09.688Z,32.53
2018-12-15T23:44:15.448Z,31.70
2018-12-15T23:49:18.243Z,30.87
2018-12-15T23:54:22.741Z,31.30
2018-12-15T23:59:25.612Z,32.07
